< < Back
Terminal Aerodrome Forecast


Current Version              Previous Versions:   1  2  3  4  5  6  7  8  9  

Terminal Aerodrome Forecast

083
FTUS44 KMRX 231401 AAA
TAFCHA
TAF AMD
KCHA 231401Z 2314/2412 02008G16KT P6SM SKC
     FM231800 02010KT P6SM SCT250
     FM240000 00000KT P6SM SKC=



Latest METAR

896
SAUS80 KWBC 231900
MTRCHA
METAR KCHA 231853Z 01009KT 10SM SCT250 BKN300 18/06 A3010 RMK AO2 SLP192
T01830056


USA.gov is the U.S. government's official web portal to all federal, state and local government web resources and services.